sensor_id;sensor_type;location;lat;lon;timestamp;pressure;altitude;pressure_sealevel;temperature;humidity
46087;BME280;31824;49.648;8.640;2022-11-12T00:02:05;102056.50;;;5.85;100.00
46087;BME280;31824;49.648;8.640;2022-11-12T00:05:26;102053.34;;;5.87;100.00
46087;BME280;31824;49.648;8.640;2022-11-12T00:08:46;102050.69;;;5.93;100.00
46087;BME280;31824;49.648;8.640;2022-11-12T00:12:07;102048.94;;;5.99;100.00
46087;BME280;31824;49.648;8.640;2022-11-12T00:15:27;102055.31;;;5.83;100.00
46087;BME280;31824;49.648;8.640;2022-11-12T00:18:49;102058.06;;;5.90;100.00
46087;BME280;31824;49.648;8.640;2022-11-12T00:22:09;102062.13;;;5.88;100.00
46087;BME280;31824;49.648;8.640;2022-11-12T00:25:29;102047.41;;;5.88;100.00
46087;BME280;31824;49.648;8.640;2022-11-12T00:28:49;102041.13;;;5.99;100.00
46087;BME280;31824;49.648;8.640;2022-11-12T00:32:10;102040.72;;;6.09;100.00
46087;BME280;31824;49.648;8.640;2022-11-12T00:35:33;102039.22;;;5.98;100.00
46087;BME280;31824;49.648;8.640;2022-11-12T00:38:53;102039.69;;;6.01;100.00
46087;BME280;31824;49.648;8.640;2022-11-12T00:42:13;102036.88;;;6.00;100.00
46087;BME280;31824;49.648;8.640;2022-11-12T00:45:33;102040.09;;;6.04;100.00
46087;BME280;31824;49.648;8.640;2022-11-12T00:48:54;102037.69;;;6.06;100.00
46087;BME280;31824;49.648;8.640;2022-11-12T00:52:15;102039.56;;;5.88;100.00
46087;BME280;31824;49.648;8.640;2022-11-12T00:55:36;102040.00;;;5.91;100.00
46087;BME280;31824;49.648;8.640;2022-11-12T00:58:56;102037.28;;;6.03;100.00
46087;BME280;31824;49.648;8.640;2022-11-12T01:02:17;102037.19;;;5.90;100.00
46087;BME280;31824;49.648;8.640;2022-11-12T01:05:38;102043.56;;;5.92;100.00
46087;BME280;31824;49.648;8.640;2022-11-12T01:09:00;102038.44;;;6.05;100.00
46087;BME280;31824;49.648;8.640;2022-11-12T01:12:21;102040.97;;;6.11;100.00
46087;BME280;31824;49.648;8.640;2022-11-12T01:15:41;102049.94;;;6.13;100.00
46087;BME280;31824;49.648;8.640;2022-11-12T01:19:04;102047.06;;;5.98;100.00
46087;BME280;31824;49.648;8.640;2022-11-12T01:22:25;102047.84;;;6.10;100.00
46087;BME280;31824;49.648;8.640;2022-11-12T01:25:47;102057.06;;;6.14;100.00
46087;BME280;31824;49.648;8.640;2022-11-12T01:29:07;102057.75;;;6.00;100.00
46087;BME280;31824;49.648;8.640;2022-11-12T01:32:27;102044.72;;;6.13;100.00
46087;BME280;31824;49.648;8.640;2022-11-12T01:35:47;102041.59;;;6.15;100.00
46087;BME280;31824;49.648;8.640;2022-11-12T01:39:08;102035.97;;;6.12;100.00
46087;BME280;31824;49.648;8.640;2022-11-12T01:42:31;102030.03;;;5.95;100.00
46087;BME280;31824;49.648;8.640;2022-11-12T01:45:52;102034.59;;;6.08;100.00
46087;BME280;31824;49.648;8.640;2022-11-12T01:49:15;102031.47;;;5.92;100.00
46087;BME280;31824;49.648;8.640;2022-11-12T01:52:41;102033.50;;;6.01;100.00
46087;BME280;31824;49.648;8.640;2022-11-12T01:56:06;102046.81;;;5.97;100.00
46087;BME280;31824;49.648;8.640;2022-11-12T01:59:32;102035.91;;;5.81;100.00
46087;BME280;31824;49.648;8.640;2022-11-12T02:02:57;102035.53;;;5.90;100.00
46087;BME280;31824;49.648;8.640;2022-11-12T02:06:19;102042.59;;;5.91;100.00
46087;BME280;31824;49.648;8.640;2022-11-12T02:09:40;102033.66;;;5.89;100.00
46087;BME280;31824;49.648;8.640;2022-11-12T02:13:00;102050.53;;;5.86;100.00
46087;BME280;31824;49.648;8.640;2022-11-12T02:16:43;102050.22;;;5.90;100.00
46087;BME280;31824;49.648;8.640;2022-11-12T02:20:08;102051.31;;;5.79;100.00
46087;BME280;31824;49.648;8.640;2022-11-12T02:23:30;102042.72;;;5.67;100.00
46087;BME280;31824;49.648;8.640;2022-11-12T02:26:53;102050.91;;;5.76;100.00
46087;BME280;31824;49.648;8.640;2022-11-12T02:30:14;102042.16;;;5.75;100.00
46087;BME280;31824;49.648;8.640;2022-11-12T02:33:35;102041.34;;;5.64;100.00
46087;BME280;31824;49.648;8.640;2022-11-12T02:36:55;102031.41;;;5.61;100.00
46087;BME280;31824;49.648;8.640;2022-11-12T02:40:17;102033.72;;;5.65;100.00
46087;BME280;31824;49.648;8.640;2022-11-12T02:43:38;102031.03;;;5.71;100.00
46087;BME280;31824;49.648;8.640;2022-11-12T02:46:59;102042.13;;;5.57;100.00
46087;BME280;31824;49.648;8.640;2022-11-12T02:50:19;102037.22;;;5.53;100.00
46087;BME280;31824;49.648;8.640;2022-11-12T02:53:39;102029.53;;;5.60;100.00
46087;BME280;31824;49.648;8.640;2022-11-12T02:57:01;102021.34;;;5.51;100.00
46087;BME280;31824;49.648;8.640;2022-11-12T03:00:21;102023.03;;;5.51;100.00
46087;BME280;31824;49.648;8.640;2022-11-12T03:03:41;102014.84;;;5.42;100.00
46087;BME280;31824;49.648;8.640;2022-11-12T03:07:02;102009.09;;;5.26;100.00
46087;BME280;31824;49.648;8.640;2022-11-12T03:10:22;102004.31;;;5.48;100.00
46087;BME280;31824;49.648;8.640;2022-11-12T03:13:44;102012.50;;;5.38;100.00
46087;BME280;31824;49.648;8.640;2022-11-12T03:17:04;102008.63;;;5.47;100.00
46087;BME280;31824;49.648;8.640;2022-11-12T03:20:25;102009.69;;;5.36;100.00
46087;BME280;31824;49.648;8.640;2022-11-12T03:23:45;102008.53;;;5.16;100.00
46087;BME280;31824;49.648;8.640;2022-11-12T03:27:06;102011.00;;;5.27;100.00
46087;BME280;31824;49.648;8.640;2022-11-12T03:30:29;102004.97;;;5.34;100.00
46087;BME280;31824;49.648;8.640;2022-11-12T03:33:49;102009.97;;;5.32;100.00
46087;BME280;31824;49.648;8.640;2022-11-12T03:37:10;102013.22;;;5.37;100.00
46087;BME280;31824;49.648;8.640;2022-11-12T03:40:31;102007.16;;;5.31;100.00
46087;BME280;31824;49.648;8.640;2022-11-12T03:43:51;101998.91;;;5.28;100.00
46087;BME280;31824;49.648;8.640;2022-11-12T03:47:13;102005.84;;;5.21;100.00
46087;BME280;31824;49.648;8.640;2022-11-12T03:50:34;102005.03;;;5.10;100.00
46087;BME280;31824;49.648;8.640;2022-11-12T03:53:54;102008.09;;;5.13;100.00
46087;BME280;31824;49.648;8.640;2022-11-12T03:57:14;102002.41;;;5.10;100.00
46087;BME280;31824;49.648;8.640;2022-11-12T04:00:34;102010.53;;;5.05;100.00
46087;BME280;31824;49.648;8.640;2022-11-12T04:03:56;102006.63;;;5.15;100.00
46087;BME280;31824;49.648;8.640;2022-11-12T04:07:16;102006.22;;;5.12;100.00
46087;BME280;31824;49.648;8.640;2022-11-12T04:10:56;102014.09;;;5.06;100.00
46087;BME280;31824;49.648;8.640;2022-11-12T04:14:16;102006.78;;;5.03;100.00
46087;BME280;31824;49.648;8.640;2022-11-12T04:17:36;102003.50;;;4.99;100.00
46087;BME280;31824;49.648;8.640;2022-11-12T04:21:17;101997.78;;;5.01;100.00
46087;BME280;31824;49.648;8.640;2022-11-12T04:24:55;101990.28;;;5.16;100.00
46087;BME280;31824;49.648;8.640;2022-11-12T04:28:34;101992.63;;;4.96;100.00
46087;BME280;31824;49.648;8.640;2022-11-12T04:31:55;101988.63;;;4.73;100.00
46087;BME280;31824;49.648;8.640;2022-11-12T04:35:15;101984.78;;;4.77;100.00
46087;BME280;31824;49.648;8.640;2022-11-12T04:38:38;101980.59;;;4.48;100.00
46087;BME280;31824;49.648;8.640;2022-11-12T04:41:59;101980.97;;;4.56;100.00
46087;BME280;31824;49.648;8.640;2022-11-12T04:45:39;101985.28;;;4.74;100.00
46087;BME280;31824;49.648;8.640;2022-11-12T04:49:00;101989.28;;;4.78;100.00
46087;BME280;31824;49.648;8.640;2022-11-12T04:52:20;101990.59;;;4.63;100.00
46087;BME280;31824;49.648;8.640;2022-11-12T04:55:42;101993.16;;;4.69;100.00
46087;BME280;31824;49.648;8.640;2022-11-12T04:59:02;101992.66;;;4.71;100.00
46087;BME280;31824;49.648;8.640;2022-11-12T05:02:23;101994.47;;;4.78;100.00
46087;BME280;31824;49.648;8.640;2022-11-12T05:05:43;101991.72;;;4.47;100.00
46087;BME280;31824;49.648;8.640;2022-11-12T05:09:03;101988.63;;;4.49;100.00
46087;BME280;31824;49.648;8.640;2022-11-12T05:12:25;101996.91;;;4.47;100.00
46087;BME280;31824;49.648;8.640;2022-11-12T05:15:46;102002.66;;;4.38;100.00
46087;BME280;31824;49.648;8.640;2022-11-12T05:19:06;101999.56;;;4.41;100.00
46087;BME280;31824;49.648;8.640;2022-11-12T05:22:26;101999.16;;;4.32;100.00
46087;BME280;31824;49.648;8.640;2022-11-12T05:26:03;101998.59;;;4.46;100.00
46087;BME280;31824;49.648;8.640;2022-11-12T05:29:24;102002.41;;;4.43;100.00
46087;BME280;31824;49.648;8.640;2022-11-12T05:32:44;102004.47;;;4.21;100.00
46087;BME280;31824;49.648;8.640;2022-11-12T05:36:05;102009.50;;;4.14;100.00
46087;BME280;31824;49.648;8.640;2022-11-12T05:39:25;102009.00;;;4.16;100.00
46087;BME280;31824;49.648;8.640;2022-11-12T05:42:46;102013.94;;;4.45;100.00
46087;BME280;31824;49.648;8.640;2022-11-12T05:46:07;102023.56;;;4.57;100.00
46087;BME280;31824;49.648;8.640;2022-11-12T05:49:29;102015.44;;;4.67;100.00
46087;BME280;31824;49.648;8.640;2022-11-12T05:52:49;102025.63;;;4.65;100.00
46087;BME280;31824;49.648;8.640;2022-11-12T05:56:10;102031.66;;;4.53;100.00
46087;BME280;31824;49.648;8.640;2022-11-12T05:59:31;102022.88;;;4.52;100.00
46087;BME280;31824;49.648;8.640;2022-11-12T06:02:56;102020.69;;;4.61;100.00
46087;BME280;31824;49.648;8.640;2022-11-12T06:06:16;102034.31;;;4.71;100.00
46087;BME280;31824;49.648;8.640;2022-11-12T06:09:36;102031.25;;;4.44;100.00
46087;BME280;31824;49.648;8.640;2022-11-12T06:12:57;102037.63;;;4.46;100.00
46087;BME280;31824;49.648;8.640;2022-11-12T06:16:17;102035.47;;;4.49;100.00
46087;BME280;31824;49.648;8.640;2022-11-12T06:19:39;102031.50;;;4.40;100.00
46087;BME280;31824;49.648;8.640;2022-11-12T06:22:59;102040.50;;;4.42;100.00
46087;BME280;31824;49.648;8.640;2022-11-12T06:26:20;102044.16;;;4.55;100.00
46087;BME280;31824;49.648;8.640;2022-11-12T06:29:41;102047.72;;;4.56;100.00
46087;BME280;31824;49.648;8.640;2022-11-12T06:33:01;102048.31;;;4.36;100.00
46087;BME280;31824;49.648;8.640;2022-11-12T06:36:23;102043.59;;;4.39;100.00
46087;BME280;31824;49.648;8.640;2022-11-12T06:39:43;102043.31;;;4.44;100.00
46087;BME280;31824;49.648;8.640;2022-11-12T06:43:04;102038.44;;;4.34;100.00
46087;BME280;31824;49.648;8.640;2022-11-12T06:46:24;102031.25;;;4.44;100.00
46087;BME280;31824;49.648;8.640;2022-11-12T06:49:44;102030.41;;;4.27;100.00
46087;BME280;31824;49.648;8.640;2022-11-12T06:53:06;102028.31;;;4.24;100.00
46087;BME280;31824;49.648;8.640;2022-11-12T06:56:26;102046.31;;;4.22;100.00
46087;BME280;31824;49.648;8.640;2022-11-12T06:59:47;102048.94;;;4.17;100.00
46087;BME280;31824;49.648;8.640;2022-11-12T07:03:07;102057.69;;;4.23;100.00
46087;BME280;31824;49.648;8.640;2022-11-12T07:06:28;102051.94;;;4.26;100.00
46087;BME280;31824;49.648;8.640;2022-11-12T07:09:49;102044.69;;;4.17;100.00
46087;BME280;31824;49.648;8.640;2022-11-12T07:13:10;102039.78;;;4.08;100.00
46087;BME280;31824;49.648;8.640;2022-11-12T07:16:31;102039.63;;;4.30;100.00
46087;BME280;31824;49.648;8.640;2022-11-12T07:19:52;102037.91;;;4.36;100.00
46087;BME280;31824;49.648;8.640;2022-11-12T07:23:12;102046.50;;;4.30;100.00
46087;BME280;31824;49.648;8.640;2022-11-12T07:26:34;102036.09;;;4.30;100.00
46087;BME280;31824;49.648;8.640;2022-11-12T07:29:54;102035.28;;;4.42;100.00
46087;BME280;31824;49.648;8.640;2022-11-12T07:33:15;102030.75;;;4.47;100.00
46087;BME280;31824;49.648;8.640;2022-11-12T07:36:35;102036.88;;;4.53;100.00
46087;BME280;31824;49.648;8.640;2022-11-12T07:39:56;102034.16;;;4.34;100.00
46087;BME280;31824;49.648;8.640;2022-11-12T07:43:18;102029.59;;;4.15;100.00
46087;BME280;31824;49.648;8.640;2022-11-12T07:46:38;102042.59;;;4.15;100.00
46087;BME280;31824;49.648;8.640;2022-11-12T07:49:58;102034.88;;;4.33;100.00
46087;BME280;31824;49.648;8.640;2022-11-12T07:53:19;102040.13;;;4.28;100.00
46087;BME280;31824;49.648;8.640;2022-11-12T07:56:40;102038.94;;;4.31;100.00
46087;BME280;31824;49.648;8.640;2022-11-12T08:00:02;102034.81;;;4.39;100.00
46087;BME280;31824;49.648;8.640;2022-11-12T08:03:22;102039.03;;;4.44;100.00
46087;BME280;31824;49.648;8.640;2022-11-12T08:06:43;102037.09;;;4.54;100.00
46087;BME280;31824;49.648;8.640;2022-11-12T08:10:04;102038.09;;;4.73;100.00
46087;BME280;31824;49.648;8.640;2022-11-12T08:13:25;102047.28;;;4.53;100.00
46087;BME280;31824;49.648;8.640;2022-11-12T08:16:47;102046.13;;;4.45;100.00
46087;BME280;31824;49.648;8.640;2022-11-12T08:20:08;102050.22;;;4.67;100.00
46087;BME280;31824;49.648;8.640;2022-11-12T08:23:29;102058.72;;;4.66;100.00
46087;BME280;31824;49.648;8.640;2022-11-12T08:26:49;102052.59;;;4.90;100.00
46087;BME280;31824;49.648;8.640;2022-11-12T08:30:11;102042.94;;;4.59;100.00
46087;BME280;31824;49.648;8.640;2022-11-12T08:33:33;102044.72;;;4.71;100.00
46087;BME280;31824;49.648;8.640;2022-11-12T08:36:54;102048.19;;;4.83;100.00
46087;BME280;31824;49.648;8.640;2022-11-12T08:40:14;102048.19;;;4.83;100.00
46087;BME280;31824;49.648;8.640;2022-11-12T08:43:35;102049.72;;;4.94;100.00
46087;BME280;31824;49.648;8.640;2022-11-12T08:46:55;102053.59;;;4.85;100.00
46087;BME280;31824;49.648;8.640;2022-11-12T08:50:17;102054.09;;;5.06;100.00
46087;BME280;31824;49.648;8.640;2022-11-12T08:53:38;102048.25;;;5.02;100.00
46087;BME280;31824;49.648;8.640;2022-11-12T08:56:58;102060.09;;;5.00;100.00
46087;BME280;31824;49.648;8.640;2022-11-12T09:00:18;102062.28;;;5.15;100.00
46087;BME280;31824;49.648;8.640;2022-11-12T09:03:39;102057.91;;;5.27;100.00
46087;BME280;31824;49.648;8.640;2022-11-12T09:07:01;102055.50;;;5.10;100.00
46087;BME280;31824;49.648;8.640;2022-11-12T09:10:21;102051.22;;;5.11;100.00
46087;BME280;31824;49.648;8.640;2022-11-12T09:13:41;102057.41;;;5.30;100.00
46087;BME280;31824;49.648;8.640;2022-11-12T09:17:02;102051.31;;;5.42;100.00
46087;BME280;31824;49.648;8.640;2022-11-12T09:20:22;102052.78;;;5.40;100.00
46087;BME280;31824;49.648;8.640;2022-11-12T09:23:44;102049.91;;;5.44;100.00
46087;BME280;31824;49.648;8.640;2022-11-12T09:27:04;102054.59;;;5.47;100.00
46087;BME280;31824;49.648;8.640;2022-11-12T09:30:25;102055.03;;;5.50;100.00
46087;BME280;31824;49.648;8.640;2022-11-12T09:33:45;102050.38;;;5.79;100.00
46087;BME280;31824;49.648;8.640;2022-11-12T09:37:06;102046.78;;;5.65;100.00
46087;BME280;31824;49.648;8.640;2022-11-12T09:40:35;102044.38;;;5.85;100.00
46087;BME280;31824;49.648;8.640;2022-11-12T09:43:59;102035.47;;;5.78;100.00
46087;BME280;31824;49.648;8.640;2022-11-12T09:47:26;102044.53;;;5.74;100.00
46087;BME280;31824;49.648;8.640;2022-11-12T09:50:53;102041.53;;;6.02;100.00
46087;BME280;31824;49.648;8.640;2022-11-12T09:54:21;102051.78;;;6.01;100.00
46087;BME280;31824;49.648;8.640;2022-11-12T09:57:44;102045.88;;;5.96;100.00
46087;BME280;31824;49.648;8.640;2022-11-12T10:01:12;102028.25;;;6.19;100.00
46087;BME280;31824;49.648;8.640;2022-11-12T10:04:52;102028.75;;;6.17;100.00
46087;BME280;31824;49.648;8.640;2022-11-12T10:08:30;102031.09;;;6.02;100.00
46087;BME280;31824;49.648;8.640;2022-11-12T10:12:04;102035.47;;;6.15;100.00
46087;BME280;31824;49.648;8.640;2022-11-12T10:16:07;102032.16;;;5.91;100.00
46087;BME280;31824;49.648;8.640;2022-11-12T10:19:59;102031.97;;;6.08;100.00
46087;BME280;31824;49.648;8.640;2022-11-12T10:23:26;102027.44;;;5.76;100.00
46087;BME280;31824;49.648;8.640;2022-11-12T10:26:47;102029.03;;;5.63;100.00
46087;BME280;31824;49.648;8.640;2022-11-12T10:30:14;102019.44;;;5.87;100.00
46087;BME280;31824;49.648;8.640;2022-11-12T10:33:35;102018.22;;;6.10;100.00
46087;BME280;31824;49.648;8.640;2022-11-12T10:36:59;102009.25;;;5.89;100.00
46087;BME280;31824;49.648;8.640;2022-11-12T10:40:30;102009.25;;;5.89;100.00
46087;BME280;31824;49.648;8.640;2022-11-12T10:43:58;102011.84;;;5.70;100.00
46087;BME280;31824;49.648;8.640;2022-11-12T10:47:23;102009.69;;;5.73;100.00
46087;BME280;31824;49.648;8.640;2022-11-12T10:50:45;102009.53;;;5.85;100.00
46087;BME280;31824;49.648;8.640;2022-11-12T10:54:19;102015.03;;;5.99;100.00
46087;BME280;31824;49.648;8.640;2022-11-12T10:57:40;102009.66;;;5.92;100.00
46087;BME280;31824;49.648;8.640;2022-11-12T11:01:03;102006.63;;;5.89;100.00
46087;BME280;31824;49.648;8.640;2022-11-12T11:04:29;102016.19;;;5.83;100.00
46087;BME280;31824;49.648;8.640;2022-11-12T11:07:51;102004.06;;;5.83;100.00
46087;BME280;31824;49.648;8.640;2022-11-12T11:11:21;102000.16;;;6.11;100.00
46087;BME280;31824;49.648;8.640;2022-11-12T11:14:41;101999.81;;;6.34;100.00
46087;BME280;31824;49.648;8.640;2022-11-12T11:18:03;102000.44;;;5.88;100.00
46087;BME280;31824;49.648;8.640;2022-11-12T11:21:42;102001.69;;;6.03;100.00
46087;BME280;31824;49.648;8.640;2022-11-12T11:25:18;101997.50;;;5.98;100.00
46087;BME280;31824;49.648;8.640;2022-11-12T11:28:46;101992.53;;;5.94;100.00
46087;BME280;31824;49.648;8.640;2022-11-12T11:32:16;101995.44;;;5.90;100.00
46087;BME280;31824;49.648;8.640;2022-11-12T11:35:47;101996.63;;;6.23;100.00
46087;BME280;31824;49.648;8.640;2022-11-12T11:39:17;101989.31;;;6.21;100.00
46087;BME280;31824;49.648;8.640;2022-11-12T11:42:55;101989.22;;;6.14;100.00
46087;BME280;31824;49.648;8.640;2022-11-12T11:46:28;101985.03;;;6.21;100.00
46087;BME280;31824;49.648;8.640;2022-11-12T11:53:38;101985.00;;;6.08;100.00
46087;BME280;31824;49.648;8.640;2022-11-12T11:57:10;101988.78;;;6.11;100.00
46087;BME280;31824;49.648;8.640;2022-11-12T12:00:41;101981.97;;;6.05;100.00
46087;BME280;31824;49.648;8.640;2022-11-12T12:04:25;101973.34;;;6.12;100.00
46087;BME280;31824;49.648;8.640;2022-11-12T12:07:58;101970.22;;;6.40;100.00
46087;BME280;31824;49.648;8.640;2022-11-12T12:11:25;101977.84;;;6.26;100.00
46087;BME280;31824;49.648;8.640;2022-11-12T12:14:55;101976.25;;;6.21;100.00
46087;BME280;31824;49.648;8.640;2022-11-12T12:18:26;101965.31;;;6.11;100.00
46087;BME280;31824;49.648;8.640;2022-11-12T12:21:51;101956.88;;;6.32;100.00
46087;BME280;31824;49.648;8.640;2022-11-12T12:25:16;101953.03;;;6.35;100.00
46087;BME280;31824;49.648;8.640;2022-11-12T12:28:42;101956.75;;;6.37;100.00
46087;BME280;31824;49.648;8.640;2022-11-12T12:32:06;101948.63;;;6.29;100.00
46087;BME280;31824;49.648;8.640;2022-11-12T12:35:33;101939.22;;;5.92;100.00
46087;BME280;31824;49.648;8.640;2022-11-12T12:39:03;101945.56;;;6.00;100.00
46087;BME280;31824;49.648;8.640;2022-11-12T12:42:32;101933.84;;;6.03;100.00
46087;BME280;31824;49.648;8.640;2022-11-12T12:45:56;101937.84;;;6.07;100.00
46087;BME280;31824;49.648;8.640;2022-11-12T12:49:21;101928.53;;;6.09;100.00
46087;BME280;31824;49.648;8.640;2022-11-12T12:53:02;101925.94;;;6.35;100.00
46087;BME280;31824;49.648;8.640;2022-11-12T12:56:46;101925.84;;;6.28;100.00
46087;BME280;31824;49.648;8.640;2022-11-12T13:00:27;101914.69;;;6.29;100.00
46087;BME280;31824;49.648;8.640;2022-11-12T13:03:56;101914.88;;;6.17;100.00
46087;BME280;31824;49.648;8.640;2022-11-12T13:07:21;101904.88;;;6.46;100.00
46087;BME280;31824;49.648;8.640;2022-11-12T13:10:58;101910.00;;;6.26;100.00
46087;BME280;31824;49.648;8.640;2022-11-12T13:14:49;101913.63;;;6.21;100.00
46087;BME280;31824;49.648;8.640;2022-11-12T13:18:10;101917.59;;;6.37;100.00
46087;BME280;31824;49.648;8.640;2022-11-12T13:21:36;101910.50;;;6.49;100.00
46087;BME280;31824;49.648;8.640;2022-11-12T13:25:01;101902.44;;;6.09;100.00
46087;BME280;31824;49.648;8.640;2022-11-12T13:28:23;101909.75;;;6.12;100.00
46087;BME280;31824;49.648;8.640;2022-11-12T13:31:44;101907.78;;;6.29;100.00
46087;BME280;31824;49.648;8.640;2022-11-12T13:35:20;101900.16;;;6.31;100.00
46087;BME280;31824;49.648;8.640;2022-11-12T13:38:41;101898.72;;;6.33;100.00
46087;BME280;31824;49.648;8.640;2022-11-12T13:42:10;101892.22;;;6.36;100.00
46087;BME280;31824;49.648;8.640;2022-11-12T13:45:54;101884.81;;;6.27;100.00
46087;BME280;31824;49.648;8.640;2022-11-12T13:49:16;101893.28;;;6.31;100.00
46087;BME280;31824;49.648;8.640;2022-11-12T13:52:38;101889.53;;;6.16;100.00
46087;BME280;31824;49.648;8.640;2022-11-12T13:55:59;101884.50;;;6.31;100.00
46087;BME280;31824;49.648;8.640;2022-11-12T13:59:21;101881.88;;;6.31;100.00
46087;BME280;31824;49.648;8.640;2022-11-12T14:02:46;101876.03;;;6.39;100.00
46087;BME280;31824;49.648;8.640;2022-11-12T14:06:14;101883.47;;;6.49;100.00
46087;BME280;31824;49.648;8.640;2022-11-12T14:09:47;101874.28;;;6.45;100.00
46087;BME280;31824;49.648;8.640;2022-11-12T14:13:14;101874.59;;;6.41;100.00
46087;BME280;31824;49.648;8.640;2022-11-12T14:16:45;101875.22;;;6.46;100.00
46087;BME280;31824;49.648;8.640;2022-11-12T14:20:23;101872.81;;;6.21;100.00
46087;BME280;31824;49.648;8.640;2022-11-12T14:23:45;101869.56;;;6.42;100.00
46087;BME280;31824;49.648;8.640;2022-11-12T14:27:20;101865.41;;;6.50;100.00
46087;BME280;31824;49.648;8.640;2022-11-12T14:30:43;101864.31;;;6.68;100.00
46087;BME280;31824;49.648;8.640;2022-11-12T14:34:20;101866.75;;;6.67;100.00
46087;BME280;31824;49.648;8.640;2022-11-12T14:37:45;101865.38;;;6.63;100.00
46087;BME280;31824;49.648;8.640;2022-11-12T14:41:09;101860.38;;;6.52;100.00
46087;BME280;31824;49.648;8.640;2022-11-12T14:44:33;101863.63;;;6.31;100.00
46087;BME280;31824;49.648;8.640;2022-11-12T14:47:54;101854.53;;;6.34;100.00
46087;BME280;31824;49.648;8.640;2022-11-12T14:51:14;101858.50;;;6.51;100.00
46087;BME280;31824;49.648;8.640;2022-11-12T14:54:41;101855.88;;;6.64;100.00
46087;BME280;31824;49.648;8.640;2022-11-12T14:58:04;101849.09;;;6.46;100.00
46087;BME280;31824;49.648;8.640;2022-11-12T15:01:27;101849.09;;;6.58;100.00
46087;BME280;31824;49.648;8.640;2022-11-12T15:05:12;101840.66;;;6.15;100.00
46087;BME280;31824;49.648;8.640;2022-11-12T15:08:34;101847.03;;;6.30;100.00
46087;BME280;31824;49.648;8.640;2022-11-12T15:11:57;101849.31;;;6.34;100.00
46087;BME280;31824;49.648;8.640;2022-11-12T15:15:19;101844.94;;;6.28;100.00
46087;BME280;31824;49.648;8.640;2022-11-12T15:18:41;101846.50;;;6.46;100.00
46087;BME280;31824;49.648;8.640;2022-11-12T15:22:02;101850.06;;;6.46;100.00
46087;BME280;31824;49.648;8.640;2022-11-12T15:25:25;101842.63;;;6.49;100.00
46087;BME280;31824;49.648;8.640;2022-11-12T15:28:58;101845.97;;;6.48;100.00
46087;BME280;31824;49.648;8.640;2022-11-12T15:32:30;101841.78;;;6.56;100.00
46087;BME280;31824;49.648;8.640;2022-11-12T15:35:55;101838.72;;;6.66;100.00
46087;BME280;31824;49.648;8.640;2022-11-12T15:39:16;101833.09;;;6.63;100.00
46087;BME280;31824;49.648;8.640;2022-11-12T15:42:37;101834.16;;;6.57;100.00
46087;BME280;31824;49.648;8.640;2022-11-12T15:46:00;101825.47;;;6.64;100.00
46087;BME280;31824;49.648;8.640;2022-11-12T15:49:21;101828.69;;;6.69;100.00
46087;BME280;31824;49.648;8.640;2022-11-12T15:52:41;101816.78;;;6.71;100.00
46087;BME280;31824;49.648;8.640;2022-11-12T15:56:02;101812.50;;;6.71;100.00
46087;BME280;31824;49.648;8.640;2022-11-12T15:59:23;101814.25;;;6.78;100.00
46087;BME280;31824;49.648;8.640;2022-11-12T16:02:45;101801.66;;;6.68;100.00
46087;BME280;31824;49.648;8.640;2022-11-12T16:06:07;101799.97;;;6.69;100.00
46087;BME280;31824;49.648;8.640;2022-11-12T16:09:28;101796.16;;;6.80;100.00
46087;BME280;31824;49.648;8.640;2022-11-12T16:12:50;101793.88;;;6.75;100.00
46087;BME280;31824;49.648;8.640;2022-11-12T16:16:11;101788.06;;;6.71;100.00
46087;BME280;31824;49.648;8.640;2022-11-12T16:19:33;101783.19;;;6.54;100.00
46087;BME280;31824;49.648;8.640;2022-11-12T16:22:53;101785.38;;;6.64;100.00
46087;BME280;31824;49.648;8.640;2022-11-12T16:26:19;101788.31;;;6.59;100.00
46087;BME280;31824;49.648;8.640;2022-11-12T16:29:42;101785.06;;;6.68;100.00
46087;BME280;31824;49.648;8.640;2022-11-12T16:33:02;101782.09;;;6.72;100.00
46087;BME280;31824;49.648;8.640;2022-11-12T16:36:24;101780.94;;;6.83;100.00
46087;BME280;31824;49.648;8.640;2022-11-12T16:39:44;101779.03;;;6.82;100.00
46087;BME280;31824;49.648;8.640;2022-11-12T16:43:05;101777.88;;;6.80;100.00
46087;BME280;31824;49.648;8.640;2022-11-12T16:46:28;101778.75;;;6.73;100.00
46087;BME280;31824;49.648;8.640;2022-11-12T16:49:49;101771.09;;;6.74;100.00
46087;BME280;31824;49.648;8.640;2022-11-12T16:53:11;101765.88;;;6.74;100.00
46087;BME280;31824;49.648;8.640;2022-11-12T16:56:32;101768.47;;;6.87;100.00
46087;BME280;31824;49.648;8.640;2022-11-12T16:59:52;101762.31;;;6.87;100.00
46087;BME280;31824;49.648;8.640;2022-11-12T17:03:13;101773.63;;;6.80;100.00
46087;BME280;31824;49.648;8.640;2022-11-12T17:06:35;101766.50;;;6.79;100.00
46087;BME280;31824;49.648;8.640;2022-11-12T17:09:57;101765.13;;;6.88;100.00
46087;BME280;31824;49.648;8.640;2022-11-12T17:13:17;101764.59;;;6.91;100.00
46087;BME280;31824;49.648;8.640;2022-11-12T17:16:38;101766.03;;;6.89;100.00
46087;BME280;31824;49.648;8.640;2022-11-12T17:19:58;101764.06;;;6.93;100.00
46087;BME280;31824;49.648;8.640;2022-11-12T17:23:19;101758.38;;;7.03;100.00
46087;BME280;31824;49.648;8.640;2022-11-12T17:26:40;101750.56;;;6.90;100.00
46087;BME280;31824;49.648;8.640;2022-11-12T17:30:01;101745.94;;;6.75;100.00
46087;BME280;31824;49.648;8.640;2022-11-12T17:33:21;101745.88;;;6.88;100.00
46087;BME280;31824;49.648;8.640;2022-11-12T17:36:42;101753.28;;;6.98;100.00
46087;BME280;31824;49.648;8.640;2022-11-12T17:40:03;101749.44;;;6.88;100.00
46087;BME280;31824;49.648;8.640;2022-11-12T17:43:25;101744.22;;;6.88;100.00
46087;BME280;31824;49.648;8.640;2022-11-12T17:46:49;101747.38;;;6.86;100.00
46087;BME280;31824;49.648;8.640;2022-11-12T17:50:09;101740.38;;;6.79;100.00